createdAt,value
2022-08-30T00:00:43.434Z,26.98
2022-08-30T00:03:16.422Z,26.98
2022-08-30T00:05:47.273Z,26.92
2022-08-30T00:08:14.960Z,26.95
2022-08-30T00:10:46.162Z,27.01
2022-08-30T00:13:19.537Z,26.81
2022-08-30T00:15:50.091Z,26.81
2022-08-30T00:18:29.121Z,26.81
2022-08-30T00:20:59.194Z,26.75
2022-08-30T00:23:27.873Z,26.85
2022-08-30T00:26:02.908Z,26.65
2022-08-30T00:28:34.289Z,26.91
2022-08-30T00:31:08.833Z,26.92
2022-08-30T00:33:41.859Z,27.01
2022-08-30T00:36:14.774Z,27.02
2022-08-30T00:38:45.488Z,26.80
2022-08-30T00:41:18.500Z,26.73
2022-08-30T00:43:46.345Z,26.75
2022-08-30T00:46:19.366Z,26.72
2022-08-30T00:48:49.938Z,26.89
2022-08-30T00:51:21.676Z,26.95
2022-08-30T00:53:57.073Z,26.85
2022-08-30T00:56:25.393Z,26.84
2022-08-30T00:58:56.622Z,26.70
2022-08-30T01:01:26.738Z,26.62
2022-08-30T01:03:57.497Z,26.68
2022-08-30T01:06:32.402Z,26.62
2022-08-30T01:09:04.503Z,26.62
2022-08-30T01:11:36.049Z,26.77
2022-08-30T01:14:06.934Z,26.73
2022-08-30T01:16:37.815Z,26.77
2022-08-30T01:19:25.692Z,26.66
2022-08-30T01:22:02.176Z,26.69
2022-08-30T01:24:35.931Z,26.55
2022-08-30T01:27:12.500Z,26.26
2022-08-30T01:29:41.007Z,26.29
2022-08-30T01:32:32.591Z,26.25
2022-08-30T01:35:04.960Z,26.27
2022-08-30T01:37:35.118Z,26.38
2022-08-30T01:40:08.667Z,26.60
2022-08-30T01:42:41.547Z,26.70
2022-08-30T01:45:09.673Z,26.69
2022-08-30T01:47:40.445Z,26.71
2022-08-30T01:50:35.471Z,26.75
2022-08-30T01:53:07.939Z,26.60
2022-08-30T01:55:46.230Z,26.02
2022-08-30T01:58:16.209Z,26.22
2022-08-30T02:00:49.714Z,26.12
2022-08-30T02:03:17.458Z,25.74
2022-08-30T02:05:46.117Z,26.09
2022-08-30T02:08:19.098Z,26.31
2022-08-30T02:10:49.732Z,26.44
2022-08-30T02:13:18.135Z,26.51
2022-08-30T02:15:51.256Z,26.57
2022-08-30T02:18:26.483Z,26.66
2022-08-30T02:21:04.316Z,26.69
2022-08-30T02:23:35.870Z,26.13
2022-08-30T02:26:07.933Z,26.22
2022-08-30T02:28:42.826Z,26.46
2022-08-30T02:31:19.467Z,26.61
2022-08-30T02:33:51.975Z,26.67
2022-08-30T02:36:20.888Z,26.63
2022-08-30T02:38:51.887Z,26.05
2022-08-30T02:41:21.728Z,26.12
2022-08-30T02:43:58.779Z,26.28
2022-08-30T02:46:33.264Z,26.34
2022-08-30T02:49:29.875Z,26.13
2022-08-30T02:51:58.237Z,25.65
2022-08-30T02:54:33.302Z,25.37
2022-08-30T02:57:05.473Z,25.37
2022-08-30T02:59:41.862Z,25.07
2022-08-30T03:02:15.673Z,25.19
2022-08-30T03:04:47.185Z,25.35
2022-08-30T03:07:17.970Z,25.14
2022-08-30T03:09:48.675Z,25.00
2022-08-30T03:12:16.400Z,25.22
2022-08-30T03:14:49.471Z,25.24
2022-08-30T03:17:20.075Z,25.30
2022-08-30T03:19:56.001Z,25.56
2022-08-30T03:22:23.945Z,25.77
2022-08-30T03:25:00.683Z,25.75
2022-08-30T03:27:34.089Z,25.75
2022-08-30T03:30:09.315Z,25.77
2022-08-30T03:32:43.288Z,25.68
2022-08-30T03:35:14.254Z,25.63
2022-08-30T03:37:45.984Z,25.79
2022-08-30T03:40:15.368Z,26.02
2022-08-30T03:42:48.943Z,26.05
2022-08-30T03:45:19.921Z,25.66
2022-08-30T03:47:50.434Z,25.56
2022-08-30T03:50:23.484Z,25.65
2022-08-30T03:52:56.854Z,25.40
2022-08-30T03:55:27.222Z,25.66
2022-08-30T03:58:00.813Z,25.67
2022-08-30T04:00:34.351Z,25.62
2022-08-30T04:03:07.531Z,25.62
2022-08-30T04:05:40.522Z,25.45
2022-08-30T04:08:11.160Z,25.56
2022-08-30T04:10:41.411Z,25.31
2022-08-30T04:13:09.474Z,25.26
2022-08-30T04:15:37.193Z,25.32
2022-08-30T04:18:04.934Z,25.22
2022-08-30T04:20:39.320Z,25.30
2022-08-30T04:23:10.504Z,25.26
2022-08-30T04:25:41.474Z,25.26
2022-08-30T04:28:09.524Z,25.29
2022-08-30T04:30:45.775Z,25.37
2022-08-30T04:33:21.187Z,25.46
2022-08-30T04:35:57.090Z,25.64
2022-08-30T04:38:30.400Z,25.46
2022-08-30T04:41:01.134Z,25.57
2022-08-30T04:43:28.860Z,25.66
2022-08-30T04:46:02.153Z,25.62
2022-08-30T04:48:29.856Z,25.79
2022-08-30T04:51:02.958Z,25.82
2022-08-30T04:53:36.333Z,25.84
2022-08-30T04:56:16.507Z,25.77
2022-08-30T04:58:52.054Z,25.46
2022-08-30T05:01:30.366Z,25.50
2022-08-30T05:04:01.525Z,25.45
2022-08-30T05:06:34.799Z,25.27
2022-08-30T05:09:06.251Z,25.33
2022-08-30T05:11:38.511Z,25.38
2022-08-30T05:14:11.197Z,25.54
2022-08-30T05:16:39.036Z,25.66
2022-08-30T05:19:09.719Z,25.64
2022-08-30T05:21:41.353Z,25.66
2022-08-30T05:24:09.236Z,25.74
2022-08-30T05:26:42.189Z,25.63
2022-08-30T05:29:31.673Z,25.42
2022-08-30T05:31:59.371Z,25.51
2022-08-30T05:34:34.412Z,25.64
2022-08-30T05:37:04.405Z,25.78
2022-08-30T05:39:50.664Z,25.83
2022-08-30T05:42:25.726Z,25.63
2022-08-30T05:44:54.370Z,25.62
2022-08-30T05:47:25.607Z,25.57
2022-08-30T05:49:56.291Z,25.44
2022-08-30T05:52:24.468Z,25.35
2022-08-30T05:54:53.061Z,25.49
2022-08-30T05:57:20.740Z,25.39
2022-08-30T05:59:48.523Z,25.14
2022-08-30T06:02:16.243Z,25.34
2022-08-30T06:04:52.368Z,25.19
2022-08-30T06:07:25.341Z,25.41
2022-08-30T06:09:55.653Z,25.51
2022-08-30T06:12:24.675Z,25.57
2022-08-30T06:14:54.747Z,25.11
2022-08-30T06:17:27.645Z,25.31
2022-08-30T06:19:56.172Z,25.42
2022-08-30T06:22:23.939Z,25.68
2022-08-30T06:24:57.762Z,25.73
2022-08-30T06:27:31.379Z,25.95
2022-08-30T06:30:04.207Z,25.98
2022-08-30T06:32:34.527Z,25.91
2022-08-30T06:35:12.186Z,25.97
2022-08-30T06:37:39.680Z,25.89
2022-08-30T06:40:07.483Z,26.03
2022-08-30T06:42:45.456Z,26.19
2022-08-30T06:45:26.876Z,26.24
2022-08-30T06:48:02.890Z,26.02
2022-08-30T06:50:37.486Z,26.06
2022-08-30T06:53:11.506Z,25.97
2022-08-30T06:55:49.708Z,25.77
2022-08-30T06:58:23.993Z,25.86
2022-08-30T07:00:57.726Z,26.14
2022-08-30T07:03:30.157Z,26.14
2022-08-30T07:06:06.213Z,26.13
2022-08-30T07:08:34.482Z,26.28
2022-08-30T07:11:10.499Z,26.21
2022-08-30T07:13:47.190Z,26.51
2022-08-30T07:16:23.165Z,26.65
2022-08-30T07:19:03.247Z,26.89
2022-08-30T07:21:43.580Z,26.67
2022-08-30T07:24:19.183Z,26.86
2022-08-30T07:26:55.426Z,27.01
2022-08-30T07:29:28.478Z,26.93
2022-08-30T07:31:58.894Z,26.95
2022-08-30T07:34:29.233Z,27.14
2022-08-30T07:37:06.805Z,27.06
2022-08-30T07:39:47.555Z,27.23
2022-08-30T07:42:24.530Z,27.13
2022-08-30T07:44:57.413Z,27.36
2022-08-30T07:47:35.986Z,27.39
2022-08-30T07:50:29.369Z,27.21
2022-08-30T07:53:02.345Z,27.20
2022-08-30T07:55:36.583Z,27.19
2022-08-30T07:58:30.911Z,27.31
2022-08-30T08:01:21.394Z,27.43
2022-08-30T08:03:51.920Z,27.64
2022-08-30T08:06:23.082Z,27.65
2022-08-30T08:09:02.267Z,27.65
2022-08-30T08:11:33.895Z,27.56
2022-08-30T08:14:06.406Z,27.67
2022-08-30T08:16:37.949Z,27.81
2022-08-30T08:19:25.363Z,27.76
2022-08-30T08:27:52.318Z,27.45
2022-08-30T08:30:24.229Z,27.57
2022-08-30T08:32:58.564Z,27.79
2022-08-30T08:35:55.699Z,27.85
2022-08-30T08:38:34.542Z,27.78
2022-08-30T08:41:15.779Z,27.83
2022-08-30T08:43:50.659Z,28.10
2022-08-30T08:49:20.121Z,28.37
2022-08-30T08:52:15.528Z,28.21
2022-08-30T08:54:53.740Z,27.76
2022-08-30T08:57:26.718Z,27.90
2022-08-30T08:59:55.552Z,28.01
2022-08-30T09:02:25.497Z,27.89
2022-08-30T09:04:58.595Z,27.80
2022-08-30T09:07:30.863Z,28.17
2022-08-30T09:10:01.811Z,28.40
2022-08-30T09:12:32.775Z,28.37
2022-08-30T09:15:05.865Z,28.59
2022-08-30T09:17:54.784Z,28.78
2022-08-30T09:20:45.603Z,28.86
2022-08-30T09:23:19.959Z,28.87
2022-08-30T09:25:54.895Z,28.65
2022-08-30T09:28:29.027Z,28.27
2022-08-30T09:31:02.924Z,27.95
2022-08-30T09:33:34.287Z,28.18
2022-08-30T09:36:23.350Z,28.33
2022-08-30T09:38:57.491Z,28.14
2022-08-30T09:41:37.635Z,27.87
2022-08-30T09:44:17.609Z,28.25
2022-08-30T09:47:22.165Z,28.68
2022-08-30T09:50:07.225Z,28.36
2022-08-30T09:52:41.073Z,28.66
2022-08-30T09:55:14.518Z,28.39
2022-08-30T09:57:43.317Z,28.20
2022-08-30T10:00:32.607Z,28.20
2022-08-30T10:03:03.673Z,28.43
2022-08-30T10:05:35.401Z,28.63
2022-08-30T10:08:16.641Z,28.68
2022-08-30T10:11:02.016Z,28.77
2022-08-30T10:13:40.363Z,28.59
2022-08-30T10:16:09.227Z,28.84
2022-08-30T10:18:46.815Z,29.23
2022-08-30T10:21:27.211Z,29.35
2022-08-30T10:24:04.999Z,29.39
2022-08-30T10:26:44.243Z,29.59
2022-08-30T10:29:17.435Z,30.03
2022-08-30T10:31:49.136Z,29.74
2022-08-30T10:34:22.940Z,29.94
2022-08-30T10:36:59.518Z,29.72
2022-08-30T10:39:35.895Z,29.95
2022-08-30T10:42:10.463Z,30.23
2022-08-30T10:44:44.887Z,30.36
2022-08-30T10:47:23.360Z,30.46
2022-08-30T10:49:54.558Z,30.46
2022-08-30T10:52:23.724Z,29.76
2022-08-30T10:54:59.539Z,30.21
2022-08-30T10:57:33.208Z,29.84
2022-08-30T11:00:04.889Z,29.67
2022-08-30T11:02:53.717Z,29.72
2022-08-30T11:05:42.114Z,30.57
2022-08-30T11:08:20.448Z,30.84
2022-08-30T11:11:12.995Z,31.31
2022-08-30T11:13:49.122Z,31.66
2022-08-30T11:16:20.687Z,31.71
2022-08-30T11:18:56.977Z,31.29
2022-08-30T11:21:28.127Z,30.95
2022-08-30T11:24:11.897Z,30.02
2022-08-30T11:26:46.507Z,30.47
2022-08-30T11:29:30.879Z,29.76
2022-08-30T11:32:03.295Z,30.86
2022-08-30T11:34:49.799Z,30.72
2022-08-30T11:37:55.871Z,30.66
2022-08-30T11:40:30.390Z,30.60
2022-08-30T11:43:03.805Z,31.09
2022-08-30T11:45:41.248Z,31.96
2022-08-30T11:48:32.198Z,32.33
2022-08-30T11:51:07.696Z,32.61
2022-08-30T11:54:21.193Z,30.85
2022-08-30T11:56:58.489Z,30.95
2022-08-30T11:59:31.912Z,31.12
2022-08-30T12:02:06.433Z,31.29
2022-08-30T12:04:45.985Z,31.52
2022-08-30T12:07:40.469Z,31.72
2022-08-30T12:10:19.876Z,32.55
2022-08-30T12:12:48.696Z,33.43
2022-08-30T12:15:30.429Z,33.12
2022-08-30T12:18:17.483Z,33.73
2022-08-30T12:20:48.863Z,34.30
2022-08-30T12:23:26.722Z,33.28
2022-08-30T12:26:15.231Z,33.69
2022-08-30T12:28:43.870Z,34.06
2022-08-30T12:31:19.118Z,34.47
2022-08-30T12:34:00.589Z,34.68
2022-08-30T12:37:00.797Z,34.59
2022-08-30T12:39:35.925Z,35.13
2022-08-30T12:42:18.412Z,35.13
2022-08-30T12:44:48.953Z,35.20
2022-08-30T12:47:22.117Z,34.83
2022-08-30T12:49:52.632Z,34.60
2022-08-30T12:52:26.000Z,34.43
2022-08-30T12:54:55.171Z,34.50
2022-08-30T12:57:39.364Z,34.54
2022-08-30T13:00:10.083Z,34.76
2022-08-30T13:02:52.204Z,34.75
2022-08-30T13:05:34.318Z,35.63
2022-08-30T13:08:11.714Z,35.32
2022-08-30T13:11:13.403Z,35.79
2022-08-30T13:13:52.173Z,34.75
2022-08-30T13:16:26.132Z,35.50
2022-08-30T13:18:54.357Z,35.42
2022-08-30T13:21:23.634Z,35.57
2022-08-30T13:23:57.995Z,36.41
2022-08-30T13:26:29.633Z,36.51
2022-08-30T13:28:58.786Z,35.39
2022-08-30T13:31:28.583Z,34.62
2022-08-30T13:34:02.461Z,35.16
2022-08-30T13:36:31.628Z,35.50
2022-08-30T13:38:59.794Z,35.95
2022-08-30T13:41:33.938Z,35.48
2022-08-30T13:44:11.698Z,35.34
2022-08-30T13:50:01.839Z,34.31
2022-08-30T13:52:29.715Z,33.75
2022-08-30T13:54:59.658Z,33.10
2022-08-30T14:00:27.201Z,32.42
2022-08-30T14:03:00.494Z,32.21
2022-08-30T14:08:45.161Z,31.70
2022-08-30T14:11:18.722Z,31.66
2022-08-30T14:16:51.670Z,31.44
2022-08-30T14:19:19.372Z,31.24
2022-08-30T14:21:49.259Z,31.02
2022-08-30T14:24:23.325Z,30.97
2022-08-30T14:26:56.384Z,31.18
2022-08-30T14:29:30.080Z,31.25
2022-08-30T14:32:00.078Z,31.19
2022-08-30T14:34:28.218Z,31.15
2022-08-30T14:36:59.631Z,30.96
2022-08-30T14:39:32.728Z,30.83
2022-08-30T14:42:03.337Z,30.73
2022-08-30T14:44:55.153Z,30.59
2022-08-30T14:47:34.425Z,30.62
2022-08-30T14:50:11.016Z,30.50
2022-08-30T14:52:38.976Z,30.52
2022-08-30T14:55:09.709Z,30.48
2022-08-30T14:57:41.284Z,30.41
2022-08-30T15:00:16.088Z,30.30
2022-08-30T15:02:47.341Z,30.63
2022-08-30T15:05:20.799Z,30.65
2022-08-30T15:07:56.816Z,30.57
2022-08-30T15:10:28.257Z,30.49
2022-08-30T15:12:59.090Z,30.43
2022-08-30T15:15:35.434Z,30.41
2022-08-30T15:18:05.405Z,30.39
2022-08-30T15:20:33.153Z,30.47
2022-08-30T15:23:01.561Z,30.50
2022-08-30T15:25:29.628Z,30.43
2022-08-30T15:27:59.867Z,30.34
2022-08-30T15:30:31.937Z,30.41
2022-08-30T15:32:59.944Z,30.30
2022-08-30T15:35:31.509Z,30.21
2022-08-30T15:38:01.564Z,30.11
2022-08-30T15:40:32.683Z,30.16
2022-08-30T15:43:03.903Z,30.03
2022-08-30T15:45:34.494Z,30.00
2022-08-30T15:48:02.678Z,29.88
2022-08-30T15:50:36.038Z,30.02
2022-08-30T15:53:11.903Z,29.93
2022-08-30T15:55:40.135Z,29.86
2022-08-30T15:58:13.751Z,29.87
2022-08-30T16:00:44.844Z,29.88
2022-08-30T16:03:13.409Z,30.01
2022-08-30T16:05:43.425Z,29.67
2022-08-30T16:08:14.265Z,29.78
2022-08-30T16:10:47.969Z,29.82
2022-08-30T16:13:22.299Z,29.79
2022-08-30T16:15:56.729Z,29.79
2022-08-30T16:18:33.591Z,29.81
2022-08-30T16:21:05.230Z,29.76
2022-08-30T16:23:36.236Z,29.68
2022-08-30T16:26:07.236Z,29.67
2022-08-30T16:28:39.616Z,29.53
2022-08-30T16:31:10.688Z,29.56
2022-08-30T16:33:43.874Z,29.61
2022-08-30T16:36:16.121Z,29.44
2022-08-30T16:38:58.021Z,29.36
2022-08-30T16:41:28.585Z,29.29
2022-08-30T16:44:03.635Z,29.24
2022-08-30T16:46:38.157Z,29.18
2022-08-30T16:49:06.754Z,29.18
2022-08-30T16:51:36.982Z,29.26
2022-08-30T16:54:07.678Z,29.18
2022-08-30T16:56:36.325Z,29.11
2022-08-30T16:59:10.940Z,29.14
2022-08-30T17:01:44.929Z,29.25
2022-08-30T17:04:13.858Z,29.22
2022-08-30T17:06:46.148Z,29.01
2022-08-30T17:09:17.033Z,28.99
2022-08-30T17:11:48.665Z,29.00
2022-08-30T17:14:27.955Z,29.03
2022-08-30T17:17:23.645Z,28.97
2022-08-30T17:19:58.368Z,29.01
2022-08-30T17:22:28.941Z,28.46
2022-08-30T17:25:04.889Z,27.45
2022-08-30T17:27:33.167Z,27.10
2022-08-30T17:30:03.722Z,26.93
2022-08-30T17:32:38.517Z,27.06
2022-08-30T17:35:14.272Z,27.12
2022-08-30T17:37:47.111Z,27.01
2022-08-30T17:40:25.406Z,27.11
2022-08-30T17:42:58.580Z,26.96
2022-08-30T17:45:29.108Z,27.10
2022-08-30T17:48:02.877Z,26.82
2022-08-30T17:50:37.388Z,26.46
2022-08-30T17:53:08.289Z,26.22
2022-08-30T17:55:48.310Z,26.15
2022-08-30T17:58:24.132Z,26.46
2022-08-30T18:01:02.053Z,26.50
2022-08-30T18:03:37.196Z,26.43
2022-08-30T18:06:10.277Z,26.24
2022-08-30T18:08:53.097Z,26.19
2022-08-30T18:11:51.908Z,26.63
2022-08-30T18:14:33.611Z,26.90
2022-08-30T18:17:11.663Z,26.86
2022-08-30T18:19:48.319Z,26.77
2022-08-30T18:22:19.706Z,26.76
2022-08-30T18:24:53.854Z,26.89
2022-08-30T18:27:28.306Z,26.93
2022-08-30T18:30:01.893Z,27.19
2022-08-30T18:32:38.502Z,27.17
2022-08-30T18:35:11.789Z,27.13
2022-08-30T18:44:24.036Z,27.24
2022-08-30T18:47:03.780Z,27.45
2022-08-30T18:49:47.141Z,27.33
2022-08-30T18:52:28.612Z,27.45
2022-08-30T18:55:04.639Z,27.53
2022-08-30T18:57:59.578Z,27.44
2022-08-30T19:00:41.586Z,27.52
2022-08-30T19:03:16.855Z,27.50
2022-08-30T19:06:08.452Z,27.21
2022-08-30T19:08:45.976Z,27.26
2022-08-30T19:11:18.582Z,27.35
2022-08-30T19:13:53.280Z,27.48
2022-08-30T19:16:36.327Z,27.36
2022-08-30T19:19:14.068Z,27.11
2022-08-30T19:21:52.349Z,26.98
2022-08-30T19:24:27.473Z,27.14
2022-08-30T19:27:07.880Z,27.36
2022-08-30T19:29:40.639Z,27.40
2022-08-30T19:32:16.919Z,27.66
2022-08-30T19:35:07.538Z,27.62
2022-08-30T19:37:39.580Z,27.62
2022-08-30T19:40:17.777Z,27.69
2022-08-30T19:42:50.072Z,27.31
2022-08-30T19:45:24.862Z,27.56
2022-08-30T19:48:00.626Z,27.62
2022-08-30T19:50:47.470Z,27.37
2022-08-30T19:56:22.990Z,27.40
2022-08-30T19:58:54.126Z,27.25
2022-08-30T20:01:33.249Z,27.40
2022-08-30T20:04:05.819Z,27.36
2022-08-30T20:06:36.583Z,27.43
2022-08-30T20:12:01.142Z,27.56
2022-08-30T20:14:32.132Z,27.32
2022-08-30T20:17:04.927Z,27.14
2022-08-30T20:19:42.883Z,27.07
2022-08-30T20:22:16.042Z,26.96
2022-08-30T20:24:47.895Z,26.79
2022-08-30T20:27:23.057Z,26.91
2022-08-30T20:29:50.855Z,27.16
2022-08-30T20:32:21.781Z,27.12
2022-08-30T20:34:58.021Z,26.51
2022-08-30T20:37:28.433Z,26.71
2022-08-30T20:39:57.638Z,26.82
2022-08-30T20:42:31.007Z,26.79
2022-08-30T20:44:59.675Z,26.85
2022-08-30T20:47:29.788Z,26.59
2022-08-30T20:50:13.900Z,26.08
2022-08-30T20:52:45.260Z,25.81
2022-08-30T20:55:20.020Z,25.98
2022-08-30T20:57:52.129Z,26.19
2022-08-30T21:00:25.710Z,26.28
2022-08-30T21:02:54.843Z,25.90
2022-08-30T21:05:22.712Z,25.70
2022-08-30T21:07:53.178Z,26.05
2022-08-30T21:10:23.494Z,26.15
2022-08-30T21:12:55.037Z,26.19
2022-08-30T21:15:37.299Z,26.13
2022-08-30T21:18:08.857Z,26.14
2022-08-30T21:20:55.695Z,26.37
2022-08-30T21:23:27.762Z,26.07
2022-08-30T21:26:02.270Z,26.16
2022-08-30T21:28:37.423Z,26.57
2022-08-30T21:31:09.977Z,26.50
2022-08-30T21:33:40.509Z,26.67
2022-08-30T21:36:30.284Z,26.16
2022-08-30T21:39:00.950Z,26.01
2022-08-30T21:41:29.846Z,25.96
2022-08-30T21:44:04.277Z,26.06
2022-08-30T21:46:33.033Z,26.15
2022-08-30T21:49:07.568Z,26.43
2022-08-30T21:51:42.597Z,26.26
2022-08-30T21:54:12.072Z,26.18
2022-08-30T21:56:43.193Z,25.98
2022-08-30T21:59:14.039Z,26.25
2022-08-30T22:01:47.364Z,26.23
2022-08-30T22:04:15.405Z,26.28
2022-08-30T22:06:50.549Z,26.35
2022-08-30T22:09:27.193Z,26.47
2022-08-30T22:12:00.415Z,26.61
2022-08-30T22:14:29.105Z,26.66
2022-08-30T22:17:02.572Z,26.65
2022-08-30T22:19:31.557Z,26.80
2022-08-30T22:22:03.940Z,26.78
2022-08-30T22:24:36.690Z,26.69
2022-08-30T22:27:05.316Z,26.49
2022-08-30T22:29:37.545Z,26.45
2022-08-30T22:32:08.555Z,26.66
2022-08-30T22:34:39.241Z,26.77
2022-08-30T22:37:09.783Z,26.86
2022-08-30T22:39:46.614Z,26.94
2022-08-30T22:42:17.930Z,26.84
2022-08-30T22:44:45.482Z,26.44
2022-08-30T22:47:16.923Z,26.26
2022-08-30T22:49:47.505Z,26.50
2022-08-30T22:52:18.160Z,26.57
2022-08-30T22:54:51.856Z,26.72
2022-08-30T22:57:20.249Z,26.72
2022-08-30T22:59:52.164Z,26.54
2022-08-30T23:02:25.204Z,26.57
2022-08-30T23:04:56.090Z,26.73
2022-08-30T23:07:29.315Z,26.52
2022-08-30T23:10:00.770Z,26.49
2022-08-30T23:12:28.079Z,26.65
2022-08-30T23:14:55.356Z,25.99
2022-08-30T23:17:27.844Z,26.03
2022-08-30T23:20:06.309Z,26.08
2022-08-30T23:22:33.504Z,26.36
2022-08-30T23:25:19.509Z,26.22
2022-08-30T23:28:08.462Z,26.08
2022-08-30T23:30:54.436Z,26.01
2022-08-30T23:34:05.091Z,26.08
2022-08-30T23:37:09.686Z,26.27
2022-08-30T23:39:56.275Z,26.21
2022-08-30T23:42:45.519Z,26.16
2022-08-30T23:45:32.633Z,26.34
2022-08-30T23:48:24.252Z,26.44
2022-08-30T23:51:12.767Z,26.39
2022-08-30T23:54:20.299Z,26.38
2022-08-30T23:57:10.137Z,26.48
